Keene, NH (03431)

8:09 AM EST on March 05, 2015 (GMT -0500)
Keene (Royal Ave) | Change Station
CLOSE
Current Station
Personal Weather Station
Location: Keene, NH
Elevation: 505 ft
Nearby Weather Stations

Elev 505 ft 42.94 °N, 72.31 °W | Updated 1 second ago

Overcast
Overcast
26.1 °F
Feels Like 26 °F
N
0.0
Wind Variable Wind from North
Gusts 0.0 mph

Today
High -- | Low -- °F
--% Chance of Precip.
Yesterday
High -- | Low -- °F
Precip. -- in
6:18 AM 5:43 PM
Full, 100% visible
Pressure 30.02 in
Visibility 10.0 miles
Clouds Few 12000 ft
Windchill 26 °F
Dew Point 10 °F
Humidity 51%
Rainfall in
Snow Depth Not available.
UV 1 out of 12
Pollen .30 out of 12
Air Quality Not available.
Flu Activity Not available.
METAR KEEN 051255Z AUTO 34009G17KT 10SM FEW120 M03/M16 A3002 RMK AO1

More Conditions Fewer Conditions

Pressure 30.02 in
Visibility 10.0 miles
Clouds Few 12000 ft
Windchill 26 °F
Dew Point 10 °F
Humidity 51%
Rainfall in
Snow Depth Not available.
UV 1 out of 12
Pollen .30 out of 12
Air Quality Not available.
Flu Activity Not available.
METAR KEEN 051255Z AUTO 34009G17KT 10SM FEW120 M03/M16 A3002 RMK AO1

More Conditions Fewer Conditions

10-Day Weather Forecast

Almanac

Astronomy

Mar. 05, 2015 Rise Set
Actual Time
Civil Twilight
Nautical Twilight
Astronomical Twilight
Moon
Length of Visible Light
Length of Day
Tomorrow will be .
, % of the Moon is Illuminated

Today's Extremes

State Highs State Lows

Community

WunderPhotos

Upload Photos

1,802,749 photos uploaded!

WunderBlogs® & News

Nearby

Air Quality

  Air Quality AQ Index Pollutant
Not available.

Snow Depth

Station Depth Elevation

Earthquake Activity

City Distance Mag. Time & Date
Minimum magnitude displayed is 2.5.

Coastal Water Temperatures

Place Temperature

Nearby Weather Stations